Time;durP1;ratioP1;P1;durP2;ratioP2;P2;SDS_P1;SDS_P2;PMS_P1;PMS_P2;Temp;Humidity;BMP_temperature;BMP_pressure;BME280_temperature;BME280_humidity;BME280_pressure;Samples;Min_cycle;Max_cycle;Signal;HPM_P1;HPM_P2
2023/06/06 00:00:34;;;;;;;1999.90;999.90;;;;;;;16.35;100.00;97870.94;5072136;28;20032;-82
2023/06/06 00:03:00;;;;;;;1999.90;999.90;;;;;;;16.38;100.00;97864.75;5058767;28;20047;-84
2023/06/06 00:05:27;;;;;;;1999.90;999.90;;;;;;;16.44;100.00;97872.50;5072510;28;20021;-77
2023/06/06 00:07:53;;;;;;;1999.90;999.90;;;;;;;16.39;100.00;97864.41;5032437;28;20037;-79
2023/06/06 00:10:18;;;;;;;1999.90;999.90;;;;;;;16.37;100.00;97863.94;5032137;28;20025;-76
2023/06/06 00:12:45;;;;;;;1999.90;999.90;;;;;;;16.47;100.00;97863.53;5050073;28;20036;-79
2023/06/06 00:15:12;;;;;;;1999.90;999.90;;;;;;;16.50;100.00;97857.34;5053694;28;20029;-77
2023/06/06 00:17:39;;;;;;;1999.90;999.90;;;;;;;16.45;100.00;97860.28;5054464;28;20029;-81
2023/06/06 00:20:08;;;;;;;1999.90;999.90;;;;;;;16.45;100.00;97867.75;5035421;28;20017;-77
2023/06/06 00:22:35;;;;;;;1999.90;999.90;;;;;;;16.45;100.00;97868.56;5053682;28;20040;-77
2023/06/06 00:25:00;;;;;;;1999.90;999.90;;;;;;;16.46;100.00;97848.13;5035633;28;20048;-77
2023/06/06 00:27:26;;;;;;;1999.90;999.90;;;;;;;16.47;100.00;97857.22;5053483;28;20446;-79
2023/06/06 00:29:51;;;;;;;1999.90;999.90;;;;;;;16.55;100.00;97856.34;5053393;28;20032;-79
2023/06/06 00:32:16;;;;;;;1999.90;999.90;;;;;;;16.46;100.00;97845.34;5035632;28;20028;-78
2023/06/06 00:34:41;;;;;;;1999.90;999.90;;;;;;;16.46;100.00;97856.41;5053500;28;20029;-81
2023/06/06 00:37:07;;;;;;;1999.90;999.90;;;;;;;16.47;100.00;97851.69;5053549;28;20028;-78
2023/06/06 00:39:32;;;;;;;1999.90;999.90;;;;;;;16.50;100.00;97857.34;5053567;28;20029;-79
2023/06/06 00:41:57;;;;;;;1999.90;999.90;;;;;;;16.52;100.00;97849.53;5053371;28;20052;-79
2023/06/06 00:44:23;;;;;;;1999.90;999.90;;;;;;;16.53;100.00;97850.34;5053192;28;20429;-77
2023/06/06 00:46:49;;;;;;;1999.90;999.90;;;;;;;16.49;100.00;97849.38;5053618;28;20409;-76
2023/06/06 00:49:15;;;;;;;1999.90;999.90;;;;;;;16.44;100.00;97850.41;5053144;28;20400;-80
2023/06/06 00:51:42;;;;;;;1999.90;999.90;;;;;;;16.38;100.00;97850.94;5053255;28;20108;-80
2023/06/06 00:54:17;;;;;;;1999.90;999.90;;;;;;;16.41;100.00;97856.56;5053054;28;20424;-78
2023/06/06 00:56:44;;;;;;;1999.90;999.90;;;;;;;16.47;100.00;97854.44;5053337;28;20079;-79
2023/06/06 00:59:11;;;;;;;1999.90;999.90;;;;;;;16.48;100.00;97856.03;5053383;28;20040;-80
2023/06/06 01:01:38;;;;;;;1999.90;999.90;;;;;;;16.41;100.00;97858.56;5053288;28;20032;-75
2023/06/06 01:04:07;;;;;;;1999.90;999.90;;;;;;;16.32;100.00;97847.53;5053352;28;20021;-82
2023/06/06 01:06:33;;;;;;;1999.90;999.90;;;;;;;16.37;100.00;97854.84;5035807;28;20060;-80
2023/06/06 01:09:04;;;;;;;1999.90;999.90;;;;;;;16.36;100.00;97855.97;5053378;28;20028;-78
2023/06/06 01:11:40;;;;;;;1999.90;999.90;;;;;;;16.31;100.00;97854.22;5035100;28;20025;-79
2023/06/06 01:14:13;;;;;;;1999.90;999.90;;;;;;;16.33;100.00;97853.88;5052689;28;20029;-78
2023/06/06 01:16:41;;;;;;;1999.90;999.90;;;;;;;16.28;100.00;97848.56;5052892;28;20501;-79
2023/06/06 01:19:16;;;;;;;1999.90;999.90;;;;;;;16.25;100.00;97846.47;5052662;28;20041;-79
2023/06/06 01:21:42;;;;;;;1999.90;999.90;;;;;;;16.38;100.00;97856.47;5034794;28;20113;-79
2023/06/06 01:24:08;;;;;;;1999.90;999.90;;;;;;;16.46;100.00;97855.59;5054343;28;20041;-78
2023/06/06 01:26:34;;;;;;;1999.90;999.90;;;;;;;16.48;100.00;97856.03;5071897;28;20052;-80
2023/06/06 01:28:59;;;;;;;1999.90;999.90;;;;;;;16.42;100.00;97846.34;5072691;28;20068;-80
2023/06/06 01:31:35;;;;;;;1999.90;999.90;;;;;;;16.41;100.00;97847.50;5072683;28;20020;-78
2023/06/06 01:34:08;;;;;;;1999.90;999.90;;;;;;;16.43;100.00;97845.22;5053623;28;20536;-78
2023/06/06 01:36:44;;;;;;;1999.90;999.90;;;;;;;16.38;100.00;97831.63;5072454;28;20028;-81
2023/06/06 01:39:15;;;;;;;1999.90;999.90;;;;;;;16.42;100.00;97849.09;5072236;28;20033;-78
2023/06/06 01:41:41;;;;;;;1999.90;999.90;;;;;;;16.34;100.00;97850.81;5072363;28;20401;-79
2023/06/06 01:44:10;;;;;;;1999.90;999.90;;;;;;;16.39;100.00;97847.81;5071978;28;20017;-77
2023/06/06 01:46:37;;;;;;;1999.90;999.90;;;;;;;16.44;100.00;97842.13;5072278;28;20135;-80
2023/06/06 01:49:03;;;;;;;1999.90;999.90;;;;;;;16.35;100.00;97841.34;5054528;28;20036;-77
2023/06/06 01:51:28;;;;;;;1999.90;999.90;;;;;;;16.35;100.00;97844.13;5072104;28;20031;-79
2023/06/06 01:53:57;;;;;;;1999.90;999.90;;;;;;;16.39;100.00;97836.78;5072114;28;20047;-79
2023/06/06 01:56:23;;;;;;;1999.90;999.90;;;;;;;16.44;100.00;97835.78;5054159;28;20055;-81
2023/06/06 01:58:48;;;;;;;1999.90;999.90;;;;;;;16.44;100.00;97836.59;5071872;28;20393;-79
2023/06/06 02:01:14;;;;;;;1999.90;999.90;;;;;;;16.37;100.00;97833.56;5071990;28;20013;-78
2023/06/06 02:03:39;;;;;;;1999.90;999.90;;;;;;;16.41;100.00;97842.00;5072004;28;20108;-77
2023/06/06 02:06:05;;;;;;;1999.90;999.90;;;;;;;16.37;100.00;97836.31;5072507;28;20028;-78
2023/06/06 02:08:30;;;;;;;1999.90;999.90;;;;;;;16.36;100.00;97842.16;5073352;28;20040;-78
2023/06/06 02:10:56;;;;;;;1999.90;999.90;;;;;;;16.35;100.00;97851.63;5077423;28;20028;-84
2023/06/06 02:13:21;;;;;;;1999.90;999.90;;;;;;;16.36;100.00;97840.22;5073106;28;20036;-81
2023/06/06 02:15:47;;;;;;;1999.90;999.90;;;;;;;16.42;100.00;97843.59;5071668;28;20028;-80
2023/06/06 02:18:12;;;;;;;1999.90;999.90;;;;;;;16.43;100.00;97843.25;5071833;28;20101;-80
2023/06/06 02:20:37;;;;;;;1999.90;999.90;;;;;;;16.35;100.00;97843.31;5053509;28;20020;-79
2023/06/06 02:23:03;;;;;;;1999.90;999.90;;;;;;;16.41;100.00;97842.00;5071382;28;20393;-79
2023/06/06 02:25:28;;;;;;;1999.90;999.90;;;;;;;16.40;100.00;97843.94;5071304;28;20588;-77
2023/06/06 02:27:54;;;;;;;1999.90;999.90;;;;;;;16.45;100.00;97848.44;5071471;28;20034;-83
2023/06/06 02:30:20;;;;;;;1999.90;999.90;;;;;;;16.37;100.00;97836.31;5071714;28;20031;-78
2023/06/06 02:32:45;;;;;;;1999.90;999.90;;;;;;;16.32;100.00;97849.53;5071494;28;20028;-82
2023/06/06 02:35:10;;;;;;;1999.90;999.90;;;;;;;16.27;100.00;97842.22;5053447;28;20079;-79
2023/06/06 02:37:36;;;;;;;1999.90;999.90;;;;;;;16.31;100.00;97837.66;5071062;28;20036;-80
2023/06/06 02:40:08;;;;;;;1999.90;999.90;;;;;;;16.33;100.00;97838.13;5071296;28;20040;-78
2023/06/06 02:42:34;;;;;;;1999.90;999.90;;;;;;;16.32;100.00;97838.47;5071143;28;20020;-79
2023/06/06 02:45:00;;;;;;;1999.90;999.90;;;;;;;16.34;100.00;97841.72;5070810;28;20028;-81
2023/06/06 02:47:26;;;;;;;1999.90;999.90;;;;;;;16.25;100.00;97849.25;5071289;28;20032;-81
2023/06/06 02:49:51;;;;;;;1999.90;999.90;;;;;;;16.24;100.00;97853.13;5071084;28;20081;-82
2023/06/06 02:52:16;;;;;;;1999.90;999.90;;;;;;;16.29;100.00;97850.19;5070982;28;20495;-80
2023/06/06 02:54:42;;;;;;;1999.90;999.90;;;;;;;16.31;100.00;97843.19;5053084;28;20055;-81
2023/06/06 02:57:07;;;;;;;1999.90;999.90;;;;;;;16.34;100.00;97847.22;5053052;28;20025;-81
2023/06/06 02:59:32;;;;;;;1999.90;999.90;;;;;;;16.32;100.00;97839.25;5070842;28;20104;-77
2023/06/06 03:01:58;;;;;;;1999.90;999.90;;;;;;;16.32;100.00;97842.03;5071049;28;20052;-77
2023/06/06 03:04:24;;;;;;;1999.90;999.90;;;;;;;16.32;100.00;97838.47;5053039;28;20067;-79
2023/06/06 03:06:49;;;;;;;1999.90;999.90;;;;;;;16.23;100.00;97840.47;5071267;28;20389;-84
2023/06/06 03:09:15;;;;;;;1999.90;999.90;;;;;;;16.28;100.00;97843.03;5070826;28;20108;-80
2023/06/06 03:11:40;;;;;;;1999.90;999.90;;;;;;;16.33;100.00;97845.59;5070791;28;20024;-79
2023/06/06 03:14:05;;;;;;;1999.90;999.90;;;;;;;16.33;100.00;97853.88;5070853;28;20069;-77
2023/06/06 03:16:34;;;;;;;1999.90;999.90;;;;;;;16.31;100.00;97856.19;5070836;28;20013;-78
2023/06/06 03:19:00;;;;;;;1999.90;999.90;;;;;;;16.38;100.00;97856.47;5053168;28;20740;-81
2023/06/06 03:21:25;;;;;;;1999.90;999.90;;;;;;;16.39;100.00;97860.81;5070560;28;20065;-77
2023/06/06 03:23:50;;;;;;;1999.90;999.90;;;;;;;16.36;100.00;97855.97;5070601;28;20090;-77
2023/06/06 03:26:16;;;;;;;1999.90;999.90;;;;;;;16.48;100.00;97861.56;5040491;28;20021;-78
2023/06/06 03:28:41;;;;;;;1999.90;999.90;;;;;;;16.45;100.00;97848.44;5051051;28;20029;-78
2023/06/06 03:31:10;;;;;;;1999.90;999.90;;;;;;;16.47;100.00;97858.03;5051040;28;20082;-79
2023/06/06 03:33:36;;;;;;;1999.90;999.90;;;;;;;16.50;100.00;97862.88;5050472;28;20033;-76
2023/06/06 03:36:02;;;;;;;1999.90;999.90;;;;;;;16.46;100.00;97859.16;5057399;28;20499;-76
2023/06/06 03:38:28;;;;;;;1999.90;999.90;;;;;;;16.51;100.00;97858.13;5070198;28;20039;-76
2023/06/06 03:40:54;;;;;;;1999.90;999.90;;;;;;;16.50;100.00;97856.53;5059394;28;20025;-77
2023/06/06 03:43:19;;;;;;;1999.90;999.90;;;;;;;16.41;100.00;97851.06;5050011;28;20021;-78
2023/06/06 03:45:45;;;;;;;1999.90;999.90;;;;;;;16.45;100.00;97848.44;5042796;28;20489;-77
2023/06/06 03:48:10;;;;;;;1999.90;999.90;;;;;;;16.41;100.00;97859.34;5070394;28;20040;-75
2023/06/06 03:50:36;;;;;;;1999.90;999.90;;;;;;;16.35;100.00;97851.63;5072608;28;20025;-79
2023/06/06 03:53:02;;;;;;;1999.90;999.90;;;;;;;16.38;100.00;97853.69;5083719;28;20136;-78
2023/06/06 03:55:28;;;;;;;1999.90;999.90;;;;;;;16.47;100.00;97859.97;5094003;28;20032;-76
2023/06/06 03:57:53;;;;;;;1999.90;999.90;;;;;;;16.51;100.00;97869.19;5094272;28;20032;-76
2023/06/06 04:00:19;;;;;;;1999.90;999.90;;;;;;;16.44;100.00;97858.69;5094056;28;20385;-80
2023/06/06 04:02:48;;;;;;;1999.90;999.90;;;;;;;16.38;100.00;97865.53;5088024;28;20021;-76
2023/06/06 04:05:15;;;;;;;1999.90;999.90;;;;;;;16.41;100.00;97875.13;5075181;28;20013;-75
2023/06/06 04:07:40;;;;;;;1999.90;999.90;;;;;;;16.44;100.00;97858.69;5114143;27;20485;-78
2023/06/06 04:10:06;;;;;;;1999.90;999.90;;;;;;;16.56;100.00;97866.25;5114465;27;20030;-78
2023/06/06 04:12:32;;;;;;;1999.90;999.90;;;;;;;16.51;100.00;97855.38;5113300;28;20473;-79
2023/06/06 04:14:57;;;;;;;1999.90;999.90;;;;;;;16.51;100.00;97847.09;5114753;28;20077;-77
2023/06/06 04:17:26;;;;;;;1999.90;999.90;;;;;;;16.56;100.00;97857.97;5098156;28;20025;-76
2023/06/06 04:19:52;;;;;;;1999.90;999.90;;;;;;;16.48;100.00;97859.63;5100086;28;20032;-78
2023/06/06 04:22:18;;;;;;;1999.90;999.90;;;;;;;16.55;100.00;97864.63;5092313;28;20035;-76
2023/06/06 04:24:44;;;;;;;1999.90;999.90;;;;;;;16.51;100.00;97863.66;5093549;28;20557;-75
2023/06/06 04:27:09;;;;;;;1999.90;999.90;;;;;;;16.50;100.00;97864.81;5093540;28;20121;-76
2023/06/06 04:29:37;;;;;;;1999.90;999.90;;;;;;;16.54;100.00;97851.94;5082969;28;20028;-75
2023/06/06 04:32:07;;;;;;;1999.90;999.90;;;;;;;16.56;100.00;97856.03;5073131;28;20082;-77
2023/06/06 04:34:33;;;;;;;1999.90;999.90;;;;;;;16.55;100.00;97859.13;5073182;28;20020;-76
2023/06/06 04:37:03;;;;;;;1999.90;999.90;;;;;;;16.63;100.00;97862.97;5072992;28;20024;-75
2023/06/06 04:39:31;;;;;;;1999.90;999.90;;;;;;;16.66;100.00;97859.53;5073119;28;20101;-77
2023/06/06 04:41:58;;;;;;;1999.90;999.90;;;;;;;16.58;100.00;97852.91;5073019;28;20013;-76
2023/06/06 04:44:27;;;;;;;1999.90;999.90;;;;;;;16.69;100.00;97851.38;5073081;28;20024;-76
2023/06/06 04:47:00;;;;;;;1999.90;999.90;;;;;;;16.66;100.00;97860.34;5058870;28;20071;-75
2023/06/06 04:49:27;;;;;;;1999.90;999.90;;;;;;;16.72;100.00;97858.19;5072923;28;20656;-77
2023/06/06 04:51:53;;;;;;;1999.90;999.90;;;;;;;16.68;100.00;97860.81;5072872;28;20044;-79
2023/06/06 04:54:18;;;;;;;1999.90;999.90;;;;;;;16.58;100.00;97858.44;5072833;28;20033;-75
2023/06/06 04:56:45;;;;;;;1999.90;999.90;;;;;;;16.56;100.00;97869.03;5056253;28;20032;-74
2023/06/06 04:59:10;;;;;;;1999.90;999.90;;;;;;;16.66;100.00;97865.88;5053977;28;20500;-74
2023/06/06 05:01:36;;;;;;;1999.90;999.90;;;;;;;16.71;100.00;97876.69;5053816;28;20024;-74
2023/06/06 05:04:03;;;;;;;1999.90;999.90;;;;;;;16.71;100.00;97876.69;5054622;28;20116;-74
2023/06/06 05:06:31;;;;;;;1999.90;999.90;;;;;;;16.65;100.00;97868.94;5060880;28;20029;-75
2023/06/06 05:08:57;;;;;;;1999.90;999.90;;;;;;;16.59;100.00;97866.41;5041753;28;20035;-75
2023/06/06 05:11:23;;;;;;;1999.90;999.90;;;;;;;16.52;100.00;97865.28;5052120;28;20029;-76
2023/06/06 05:13:48;;;;;;;1999.90;999.90;;;;;;;16.46;100.00;97878.47;5034436;28;20037;-74
2023/06/06 05:16:14;;;;;;;1999.90;999.90;;;;;;;16.46;100.00;97874.91;5038122;28;20390;-74
2023/06/06 05:18:39;;;;;;;1999.90;999.90;;;;;;;16.41;100.00;97869.59;5034759;28;20060;-76
2023/06/06 05:21:05;;;;;;;1999.90;999.90;;;;;;;16.46;100.00;97867.44;5053683;28;20052;-76
2023/06/06 05:23:31;;;;;;;1999.90;999.90;;;;;;;16.60;100.00;97875.50;5034267;28;20033;-74
2023/06/06 05:25:58;;;;;;;1999.90;999.90;;;;;;;16.60;100.00;97878.28;5033552;28;20458;-78
2023/06/06 05:28:29;;;;;;;1999.90;999.90;;;;;;;16.60;100.00;97869.97;5052137;28;20392;-75
2023/06/06 05:30:58;;;;;;;1999.90;999.90;;;;;;;16.56;100.00;97860.75;5052345;28;20025;-76
2023/06/06 05:33:26;;;;;;;1999.90;999.90;;;;;;;16.54;100.00;97861.06;5034227;28;20021;-75
2023/06/06 05:35:55;;;;;;;1999.90;999.90;;;;;;;16.66;100.00;97876.91;5036792;28;20055;-79
2023/06/06 05:38:21;;;;;;;1999.90;999.90;;;;;;;16.65;100.00;97861.47;5057604;28;20025;-78
2023/06/06 05:40:46;;;;;;;1999.90;999.90;;;;;;;16.75;100.00;97874.91;5051735;28;20436;-74
2023/06/06 05:43:13;;;;;;;1999.90;999.90;;;;;;;16.77;100.00;97869.81;5051841;28;20470;-77
2023/06/06 05:45:38;;;;;;;1999.90;999.90;;;;;;;16.74;100.00;97873.28;5052123;28;20063;-77
2023/06/06 05:48:04;;;;;;;1999.90;999.90;;;;;;;16.77;100.00;97878.13;5051469;28;20521;-77
2023/06/06 05:50:30;;;;;;;1999.90;999.90;;;;;;;16.54;100.00;97850.03;5052837;28;20029;-75
2023/06/06 05:52:55;;;;;;;1999.90;999.90;;;;;;;16.75;100.00;97872.13;5052256;28;20381;-76
2023/06/06 05:55:29;;;;;;;1999.90;999.90;;;;;;;16.77;100.00;97875.34;5034052;28;20518;-74
2023/06/06 05:57:57;;;;;;;1999.90;999.90;;;;;;;16.59;100.00;97844.31;5035403;28;20021;-74
2023/06/06 06:00:24;;;;;;;1999.90;999.90;;;;;;;16.81;100.00;97873.53;5072592;28;20020;-74
2023/06/06 06:02:51;;;;;;;1999.90;999.90;;;;;;;16.87;100.00;97869.44;5058548;28;20029;-76
2023/06/06 06:05:17;;;;;;;1999.90;999.90;;;;;;;16.94;100.00;97866.94;5050011;28;20101;-75
2023/06/06 06:07:44;;;;;;;1999.90;999.90;;;;;;;16.99;100.00;97868.66;5069639;28;20191;-74
2023/06/06 06:10:10;;;;;;;1999.90;999.90;;;;;;;17.10;100.00;97859.59;5051404;28;20032;-76
2023/06/06 06:12:35;;;;;;;1999.90;999.90;;;;;;;17.42;100.00;97857.16;5066539;28;20111;-74
2023/06/06 06:15:01;;;;;;;1999.90;999.90;;;;;;;17.69;100.00;97875.13;5052909;28;20116;-74
2023/06/06 06:17:26;;;;;;;1999.90;999.90;;;;;;;18.08;100.00;97869.72;5053240;28;20115;-72
2023/06/06 06:19:51;;;;;;;1999.90;999.90;;;;;;;18.25;100.00;97870.66;5071666;28;20055;-72
2023/06/06 06:22:16;;;;;;;1999.90;999.90;;;;;;;18.39;100.00;97873.84;5070904;28;20399;-74
2023/06/06 06:24:42;;;;;;;1999.90;999.90;;;;;;;18.44;100.00;97884.72;5052967;28;20446;-74
2023/06/06 06:27:07;;;;;;;1999.90;999.90;;;;;;;18.36;100.00;97885.63;5071251;28;20028;-75
2023/06/06 06:29:32;;;;;;;1999.90;999.90;;;;;;;18.23;100.00;97884.06;5052792;28;20037;-74
2023/06/06 06:31:58;;;;;;;1999.90;999.90;;;;;;;18.17;100.00;97891.75;5053064;28;20024;-75
2023/06/06 06:34:23;;;;;;;1999.90;999.90;;;;;;;18.11;100.00;97885.66;5070794;28;20033;-74
2023/06/06 06:36:48;;;;;;;1999.90;999.90;;;;;;;17.94;100.00;97883.13;5052704;28;20024;-75
2023/06/06 06:39:18;;;;;;;1999.90;999.90;;;;;;;17.94;100.00;97898.91;5052841;28;20024;-76
2023/06/06 06:41:45;;;;;;;1999.90;999.90;;;;;;;17.87;100.00;97896.72;5052738;28;20059;-76
2023/06/06 06:44:10;;;;;;;1999.90;999.90;;;;;;;17.74;100.00;97892.31;5070397;28;20033;-77
2023/06/06 06:46:35;;;;;;;1999.90;999.90;;;;;;;17.62;100.00;97906.13;5077551;28;20044;-74
2023/06/06 06:49:01;;;;;;;1999.90;999.90;;;;;;;17.52;100.00;97910.09;5091335;28;20028;-74
2023/06/06 06:51:27;;;;;;;1999.90;999.90;;;;;;;17.42;100.00;97902.22;5089815;28;20067;-74
2023/06/06 06:53:53;;;;;;;1999.90;999.90;;;;;;;17.35;100.00;97909.47;5091015;28;20055;-74
2023/06/06 06:56:18;;;;;;;1999.90;999.90;;;;;;;17.29;100.00;97905.31;5089624;28;20028;-77
2023/06/06 06:58:44;;;;;;;1999.90;999.90;;;;;;;17.35;100.00;97912.25;5091039;28;20461;-76
2023/06/06 07:01:10;;;;;;;1999.90;999.90;;;;;;;17.18;100.00;97909.63;5090974;28;20463;-73
2023/06/06 07:03:36;;;;;;;1999.90;999.90;;;;;;;17.26;100.00;97914.28;5090783;28;20020;-73
2023/06/06 07:06:03;;;;;;;1999.90;999.90;;;;;;;17.23;100.00;97896.41;5090850;28;20024;-74
2023/06/06 07:08:30;;;;;;;1999.90;999.90;;;;;;;17.31;100.00;97909.34;5102915;28;20038;-75
2023/06/06 07:10:55;;;;;;;1999.90;999.90;;;;;;;17.27;100.00;97910.34;5111147;28;20035;-75
2023/06/06 07:13:20;;;;;;;1999.90;999.90;;;;;;;17.17;100.00;97919.88;5110988;28;20020;-76
2023/06/06 07:15:46;;;;;;;1999.90;999.90;;;;;;;17.13;100.00;97903.16;5111088;28;20106;-73
2023/06/06 07:18:12;;;;;;;1999.90;999.90;;;;;;;17.29;100.00;97900.56;5111587;28;20028;-75
2023/06/06 07:20:38;;;;;;;1999.90;999.90;;;;;;;17.35;100.00;97904.75;5109624;28;20526;-75
2023/06/06 07:23:03;;;;;;;1999.90;999.90;;;;;;;17.50;100.00;97906.88;5110409;28;20035;-74
2023/06/06 07:25:28;;;;;;;1999.90;999.90;;;;;;;17.38;100.00;97914.31;5109254;28;20019;-76
2023/06/06 07:27:54;;;;;;;1999.90;999.90;;;;;;;17.39;100.00;97899.31;5109305;28;20127;-74
2023/06/06 07:30:20;;;;;;;1999.90;999.90;;;;;;;17.36;100.00;97916.59;5110878;28;20388;-73
2023/06/06 07:32:49;;;;;;;1999.90;999.90;;;;;;;17.31;100.00;97914.06;5110921;28;20020;-76
2023/06/06 07:35:17;;;;;;;1999.90;999.90;;;;;;;17.13;100.00;97924.47;5110821;28;20035;-76
2023/06/06 07:37:42;;;;;;;1999.90;999.90;;;;;;;17.23;100.00;97912.97;5110646;28;20120;-75
2023/06/06 07:40:10;;;;;;;1999.90;999.90;;;;;;;17.21;100.00;97914.47;5110632;28;20084;-75
2023/06/06 07:42:36;;;;;;;1999.90;999.90;;;;;;;17.40;100.00;97917.53;5110641;28;20027;-74
2023/06/06 07:45:05;;;;;;;1999.90;999.90;;;;;;;17.58;100.00;97917.06;5109241;28;20031;-75
2023/06/06 07:47:30;;;;;;;1999.90;999.90;;;;;;;17.70;100.00;97910.75;5090749;28;20028;-76
2023/06/06 07:49:56;;;;;;;1999.90;999.90;;;;;;;17.95;100.00;97915.16;5072216;28;20090;-75
2023/06/06 07:52:21;;;;;;;1999.90;999.90;;;;;;;18.23;100.00;97900.66;5090155;28;20078;-75
2023/06/06 07:54:47;;;;;;;1999.90;999.90;;;;;;;18.63;100.00;97918.19;5072194;28;20055;-74
2023/06/06 07:57:16;;;;;;;1999.90;999.90;;;;;;;18.87;100.00;97918.16;5072073;28;20130;-75
2023/06/06 07:59:42;;;;;;;1999.90;999.90;;;;;;;19.01;100.00;97904.72;5090409;28;20445;-74
2023/06/06 08:02:07;;;;;;;1999.90;999.90;;;;;;;19.45;100.00;97921.44;5090299;28;20114;-73
2023/06/06 08:04:32;;;;;;;1999.90;999.90;;;;;;;19.93;100.00;97915.59;5071952;28;20115;-76
2023/06/06 08:06:58;;;;;;;1999.90;999.90;;;;;;;20.54;100.00;97924.31;5072212;28;20028;-73
2023/06/06 08:09:23;;;;;;;1999.90;999.90;;;;;;;20.72;100.00;97916.38;5089821;28;20050;-75
2023/06/06 08:11:49;;;;;;;1999.90;999.90;;;;;;;21.23;100.00;97919.91;5090512;28;20025;-72
2023/06/06 08:14:14;;;;;;;1999.90;999.90;;;;;;;21.44;100.00;97897.28;5071617;28;20107;-75
2023/06/06 08:16:40;;;;;;;1999.90;999.90;;;;;;;22.46;100.00;97906.69;5072112;28;20425;-73
2023/06/06 08:19:05;;;;;;;1999.90;999.90;;;;;;;24.07;100.00;97909.19;5090591;28;20046;-76
2023/06/06 08:21:30;;;;;;;1999.90;999.90;;;;;;;25.16;100.00;97923.22;5071842;28;20016;-76
2023/06/06 08:23:57;;;;;;;1999.90;999.90;;;;;;;25.96;95.64;97917.16;5090035;28;20066;-74
2023/06/06 08:26:25;;;;;;;1999.90;999.90;;;;;;;26.85;87.76;97931.25;5090535;28;20016;-75
2023/06/06 08:28:53;;;;;;;1999.90;999.90;;;;;;;26.63;89.46;97924.06;5072610;28;20035;-73
2023/06/06 08:31:19;;;;;;;1999.90;999.90;;;;;;;25.92;90.68;97933.16;5090876;28;20392;-75
2023/06/06 08:33:45;;;;;;;1999.90;999.90;;;;;;;25.93;86.15;97939.59;5091481;28;20032;-76
2023/06/06 08:36:11;;;;;;;1999.90;999.90;;;;;;;27.94;76.39;97936.50;5094553;28;20039;-74
2023/06/06 08:38:38;;;;;;;1999.90;999.90;;;;;;;30.05;61.66;97935.72;5094101;28;20103;-74
2023/06/06 08:41:05;;;;;;;1999.90;999.90;;;;;;;30.85;59.90;97948.22;5075373;28;20370;-75
2023/06/06 08:43:36;;;;;;;1999.90;999.90;;;;;;;28.87;64.98;97931.84;5075739;28;20111;-74
2023/06/06 08:46:02;;;;;;;1999.90;999.90;;;;;;;26.87;70.50;97926.06;5093538;28;20077;-75
2023/06/06 08:48:29;;;;;;;1999.90;999.90;;;;;;;25.51;78.01;97926.22;5075769;28;20480;-74
2023/06/06 08:50:59;;;;;;;1999.90;999.90;;;;;;;25.62;80.98;97926.28;5093173;28;20031;-74
2023/06/06 08:53:25;;;;;;;1999.90;999.90;;;;;;;26.78;76.04;97925.63;5075058;28;20039;-74
2023/06/06 08:55:55;;;;;;;1999.90;999.90;;;;;;;26.33;78.92;97925.25;5093295;28;20032;-75
2023/06/06 08:58:21;;;;;;;1999.90;999.90;;;;;;;28.56;65.18;97932.91;5075609;28;20028;-74
2023/06/06 09:00:46;;;;;;;1999.90;999.90;;;;;;;27.41;66.08;97924.72;5093565;28;20027;-73
2023/06/06 09:03:13;;;;;;;1999.90;999.90;;;;;;;26.37;72.15;97928.06;5075302;28;20536;-74
2023/06/06 09:05:39;;;;;;;1999.90;999.90;;;;;;;24.48;79.04;97911.56;5093420;28;20024;-74
2023/06/06 09:08:06;;;;;;;1999.90;999.90;;;;;;;23.58;87.69;97910.28;5074335;28;20123;-74
2023/06/06 09:10:31;;;;;;;1999.90;999.90;;;;;;;22.66;96.59;97903.44;5074887;28;20028;-73
2023/06/06 09:12:56;;;;;;;1999.90;999.90;;;;;;;22.06;100.00;97896.06;5076572;28;20038;-73
2023/06/06 09:15:25;;;;;;;1999.90;999.90;;;;;;;21.35;100.00;97895.53;5072698;28;20017;-75
2023/06/06 09:17:53;;;;;;;1999.90;999.90;;;;;;;21.00;100.00;97900.31;5072570;28;20046;-73
2023/06/06 09:20:18;;;;;;;1999.90;999.90;;;;;;;20.84;100.00;97896.78;5072669;28;20041;-74
2023/06/06 09:22:46;;;;;;;1999.90;999.90;;;;;;;20.74;100.00;97903.72;5072434;28;20031;-75
2023/06/06 09:25:19;;;;;;;1999.90;999.90;;;;;;;20.72;100.00;97894.13;5072673;28;20024;-73
2023/06/06 09:27:45;;;;;;;1999.90;999.90;;;;;;;20.75;100.00;97890.63;5054806;28;20063;-75
2023/06/06 09:30:24;;;;;;;1999.90;999.90;;;;;;;20.59;100.00;97878.75;5073412;28;20033;-76
2023/06/06 09:33:00;;;;;;;1999.90;999.90;;;;;;;20.44;100.00;97887.91;5072151;28;20025;-72
2023/06/06 09:35:43;;;;;;;1999.90;999.90;;;;;;;20.34;100.00;97882.91;5054312;28;20130;-73
2023/06/06 09:38:17;;;;;;;1999.90;999.90;;;;;;;20.16;100.00;97879.69;5072712;28;20119;-76
2023/06/06 09:40:44;;;;;;;1999.90;999.90;;;;;;;20.39;100.00;97877.09;5054807;28;20029;-76
2023/06/06 09:43:10;;;;;;;1999.90;999.90;;;;;;;20.57;100.00;97886.66;5054114;28;20055;-75
2023/06/06 09:45:47;;;;;;;1999.90;999.90;;;;;;;20.39;100.00;97882.66;5061424;28;20079;-74
2023/06/06 09:48:12;;;;;;;1999.90;999.90;;;;;;;20.63;100.00;97879.63;5091487;28;20086;-75
2023/06/06 09:50:41;;;;;;;1999.90;999.90;;;;;;;20.72;100.00;97874.69;5092988;28;20028;-74
2023/06/06 09:53:12;;;;;;;1999.90;999.90;;;;;;;20.73;100.00;97876.28;5092291;28;20039;-75
2023/06/06 09:55:39;;;;;;;1999.90;999.90;;;;;;;21.00;100.00;97866.94;5092106;28;20071;-74
2023/06/06 09:58:07;;;;;;;1999.90;999.90;;;;;;;21.46;100.00;97875.47;5092057;28;20047;-73
2023/06/06 10:00:37;;;;;;;1999.90;999.90;;;;;;;22.14;100.00;97870.75;5092178;28;20097;-74
2023/06/06 10:03:04;;;;;;;1999.90;999.90;;;;;;;22.29;100.00;97878.16;5092103;28;20032;-74
2023/06/06 10:05:31;;;;;;;1999.90;999.90;;;;;;;22.56;100.00;97875.34;5091950;28;20480;-75
2023/06/06 10:07:57;;;;;;;1999.90;999.90;;;;;;;23.75;96.48;97881.72;5092038;28;20549;-75
2023/06/06 10:10:24;;;;;;;1999.90;999.90;;;;;;;23.88;89.62;97873.88;5090706;28;20024;-74
2023/06/06 10:12:50;;;;;;;1999.90;999.90;;;;;;;23.34;92.71;97878.03;5091866;28;20027;-75
2023/06/06 10:15:16;;;;;;;1999.90;999.90;;;;;;;23.67;96.64;97890.41;5092025;28;20024;-75
2023/06/06 10:17:42;;;;;;;1999.90;999.90;;;;;;;23.75;95.56;97886.50;5091912;28;20031;-77
2023/06/06 10:20:10;;;;;;;1999.90;999.90;;;;;;;22.92;100.00;97880.31;5093825;28;20043;-76
2023/06/06 10:22:44;;;;;;;1999.90;999.90;;;;;;;23.24;100.00;97889.88;5093240;28;20542;-77
2023/06/06 10:25:12;;;;;;;1999.90;999.90;;;;;;;22.69;100.00;97880.38;5092562;28;20505;-74
2023/06/06 10:27:50;;;;;;;1999.90;999.90;;;;;;;22.48;100.00;97880.03;5094545;28;20038;-77
2023/06/06 10:30:47;;;;;;;1999.90;999.90;;;;;;;23.41;100.00;97869.78;5093503;28;20038;-75
2023/06/06 10:33:29;;;;;;;1999.90;999.90;;;;;;;24.33;100.00;97872.69;5092598;28;20500;-74
2023/06/06 10:36:01;;;;;;;1999.90;999.90;;;;;;;24.14;97.25;97865.34;5089160;28;20020;-75
2023/06/06 10:38:26;;;;;;;1999.90;999.90;;;;;;;23.57;100.00;97868.75;5091747;28;20505;-73
2023/06/06 10:40:54;;;;;;;1999.90;999.90;;;;;;;23.96;96.94;97867.16;5091016;28;20059;-76
2023/06/06 10:43:45;;;;;;;1999.90;999.90;;;;;;;23.21;93.21;97862.72;5092927;28;20488;-76
2023/06/06 10:46:11;;;;;;;1999.90;999.90;;;;;;;22.67;100.00;97868.81;5080472;28;20127;-74